Relevés horaires Matro (Suisse)


Relevés horaires à Matro - Mercredi 29 Juin 2022
Heure UTC1 Température [°C] Vent [km/h] Hum. [%] Pres.4 [hPa] Visi. [Km] Nébu. [octa] Préc.5 [mm] Cond.
2m. Res. Ros. Dir.2 Vit. Moy. Raf.3
23:00 11.2 9.6 9.4 SSE 13.0 -- 16.7 89 850(0.3/3h) -- -- -- --
22:00 11.0 9 10.0 SSE 16.7 -- 22.2 94 850(0.8/3h) -- -- -- --
21:00 11.8 10.2 9.1 SSE 14.8 -- 31.5 84 850(0.8/3h) -- -- -- --
20:00 11.8 9.5 10.0 SE 22.2 -- 31.5 89 850(0.5/3h) -- -- -- --
19:00 11.9 9.9 10.2 SE 18.5 -- 27.8 89 850(0.0/3h) -- -- -- --
18:00 13.2 12.9 10.9 SE 7.4 -- 27.8 86 850(-0.2/3h) -- -- -- --
17:00 13.0 11.8 10.4 SE 13.0 -- 27.8 84 850(-0.2/3h) -- -- -- --
16:00 14.9 14.9 9.6 SE 5.6 -- 24.1 71 850(0.2/3h) -- -- -- --
15:00 15.4 15 9.3 SSE 11.1 -- -- 67 850(0.1/3h) -- -- -- --
13:00 15.1 15.1 8.0 SE 5.6 -- 16.7 63 850(-0.1/3h) -- -- -- --
12:00 14.5 14.1 5.4 NO 9.3 -- 27.8 54 850(0.1/3h) -- -- -- --
11:00 14.8 14.7 8.0 O 7.4 -- 18.5 64 850(0.4/3h) -- -- -- --
10:00 14.0 13.3 7.0 NNO 11.1 -- 24.1 63 850(0.5/3h) -- -- -- --
09:00 12.7 11.3 6.8 NNO 14.8 -- 27.8 67 850(0.4/3h) -- -- -- --
08:00 12.0 10.4 7.0 NNO 14.8 -- 24.1 71 850(-0.2/3h) -- -- -- --
07:00 11.6 10.7 6.9 N 9.3 -- 14.8 73 850(-0.3/3h) -- -- -- --
06:00 11.3 11.1 7.9 NNO 5.6 -- 24.1 80 850(-0.6/3h) -- -- -- --
05:00 10.3 8.5 5.7 NNO 13.0 -- 14.8 73 850(-0.6/3h) -- -- -- --
04:00 10.0 8.5 6.6 NNO 11.1 -- 14.8 79 850(-0.9/3h) -- -- -- --
03:00 10.4 10 5.4 N 5.6 -- 24.1 71 850(-0.8/3h) -- -- -- --
02:00 10.5 10.5 5.5 S 1.9 -- 22.2 71 850(-0.9/3h) -- -- -- --
01:00 10.8 8.7 5.2 SE 16.7 -- -- 68 784.3 -- -- -- --
00:00 10.4 7.4 5.9 SSE 25.9 -- 31.5 74 850(-1.0/3h) -- -- -- --

1 Coordinated Universal Time. Actuellement il est 20:00 locale et 18:00 UTC.

2 Le vent souffle depuis la direction indiquée vers la direction oposée.

3 Les rafales max. sont disponible 40 min après l'heure du relevé.

4 Pour les stations d'altitude (plus de 600m) le géopotentiel du niveau le plus proche de la pression obligatoire est indiqué.

5 Les stations disposant d'un diffuseur peuvent indiquer "trace". Cela signifie que des précipitations ont touchés le sol mais que la quantité est inférieure à 0.1 mm.

Copyright

Les données affichées sur cette page sont la propriété exclusive de Météo Suisse.

Récapitulatif de la journée
Température [°C] Vent [km/h] Ensoleillement4 [h] Precipitations totale5 [mm] Pression [Hpa]
Min1 Max.2 Moy.3 Max. Min Max.
10.0 16.3 0 31.5 11 h 12 min 0 784.3 850.0

1 Température minimale relevée entre 18:00 UTC la veille et 18:00 UTC le jour donné.

2 Température maximale relevée entre 06:00 UTC le jour donné et 06:00 UTC le lendemain.

3 Vent moyen de la journée basé sur les relevés horaires.

4 Ensoleillement en heures relevé entre 06:00 UTC la veille et 06:00 UTC le jour donné.

5 Précipitations totales tombées entre 06:00 UTC la jour donné et 06:00 UTC le lendemain.

Graphiques horaires